Time;durP1;ratioP1;P1;durP2;ratioP2;P2;SDS_P1;SDS_P2;PMS_P1;PMS_P2;Temp;Humidity;BMP_temperature;BMP_pressure;BME280_temperature;BME280_humidity;BME280_pressure;Samples;Min_cycle;Max_cycle;Signal;HPM_P1;HPM_P2
2022/10/01 00:01:04;;;;;;;6.90;3.83;;;15.30;70.20;;;;;;5094895;28;20447;-65
2022/10/01 00:03:31;;;;;;;4.50;3.40;;;15.30;71.30;;;;;;5094658;28;21097;-65
2022/10/01 00:06:02;;;;;;;4.40;4.00;;;15.20;71.60;;;;;;5095287;28;20501;-65
2022/10/01 00:08:29;;;;;;;4.73;3.50;;;15.20;71.90;;;;;;5095500;28;20474;-65
2022/10/01 00:10:56;;;;;;;7.43;3.70;;;15.10;73.00;;;;;;5095015;28;20440;-65
2022/10/01 00:13:23;;;;;;;4.67;4.27;;;15.10;74.00;;;;;;5095633;28;20445;-65
2022/10/01 00:15:52;;;;;;;4.37;3.80;;;15.00;74.30;;;;;;5095465;28;20534;-65
2022/10/01 00:18:19;;;;;;;4.93;3.50;;;15.00;74.60;;;;;;5096148;28;20450;-65
2022/10/01 00:20:45;;;;;;;5.37;3.30;;;15.00;75.70;;;;;;5096658;28;20447;-65
2022/10/01 00:23:13;;;;;;;4.70;3.00;;;15.00;76.70;;;;;;5099120;28;20482;-65
2022/10/01 00:25:40;;;;;;;4.97;4.07;;;14.90;77.50;;;;;;5095151;28;20474;-66
2022/10/01 00:28:07;;;;;;;6.63;3.60;;;14.90;78.30;;;;;;5094715;28;20531;-65
2022/10/01 00:30:34;;;;;;;4.57;4.17;;;14.80;79.20;;;;;;5094570;28;20442;-65
2022/10/01 00:33:02;;;;;;;3.23;2.93;;;14.80;80.10;;;;;;5094008;28;20443;-65
2022/10/01 00:35:29;;;;;;;4.23;3.77;;;14.70;81.40;;;;;;5094110;28;20909;-65
2022/10/01 00:37:56;;;;;;;5.27;3.40;;;14.60;82.50;;;;;;5093980;28;20454;-65
2022/10/01 00:40:23;;;;;;;4.57;3.67;;;14.60;83.70;;;;;;5093799;28;20467;-65
2022/10/01 00:42:50;;;;;;;3.70;3.40;;;14.50;84.60;;;;;;5093992;28;20518;-65
2022/10/01 00:45:17;;;;;;;5.73;4.17;;;14.50;85.20;;;;;;5094017;28;20488;-65
2022/10/01 00:47:49;;;;;;;4.03;3.23;;;14.40;85.80;;;;;;5094298;28;20803;-65
2022/10/01 00:50:23;;;;;;;5.43;4.93;;;14.40;87.10;;;;;;5094760;28;20515;-65
2022/10/01 00:52:54;;;;;;;6.10;5.60;;;14.30;88.10;;;;;;5096651;28;20487;-65
2022/10/01 00:55:26;;;;;;;5.83;5.33;;;14.30;89.00;;;;;;5096335;28;20474;-65
2022/10/01 00:57:54;;;;;;;5.40;4.70;;;14.30;89.30;;;;;;5094113;28;20799;-65
2022/10/01 01:00:22;;;;;;;5.17;4.27;;;14.30;89.60;;;;;;5093871;28;20469;-65
2022/10/01 01:02:49;;;;;;;4.93;4.00;;;14.20;89.90;;;;;;5093718;28;20924;-65
2022/10/01 01:05:18;;;;;;;5.70;3.53;;;14.10;90.10;;;;;;5093584;28;20481;-65
2022/10/01 01:07:48;;;;;;;3.40;3.20;;;14.10;90.40;;;;;;5093729;28;20498;-65
2022/10/01 01:10:18;;;;;;;7.03;3.47;;;14.10;90.80;;;;;;5093705;28;20454;-65
2022/10/01 01:12:55;;;;;;;4.43;3.33;;;14.10;90.70;;;;;;5093722;28;20447;-65
2022/10/01 01:15:26;;;;;;;4.23;3.00;;;14.10;91.00;;;;;;5093573;28;20492;-65
2022/10/01 01:17:57;;;;;;;3.30;3.00;;;14.00;90.90;;;;;;5093626;28;20446;-65
2022/10/01 01:20:58;;;;;;;3.53;3.23;;;14.00;91.20;;;;;;5093646;28;20430;-65
2022/10/01 01:23:51;;;;;;;4.87;2.73;;;13.90;91.50;;;;;;5067341;28;21030;-65
2022/10/01 01:26:30;;;;;;;5.17;2.50;;;13.90;91.70;;;;;;5093240;28;20981;-65
2022/10/01 01:29:05;;;;;;;10.30;2.93;;;13.90;91.70;;;;;;5093717;28;20451;-65
2022/10/01 01:31:39;;;;;;;9.33;3.33;;;13.90;91.80;;;;;;5093295;28;20836;-65
2022/10/01 01:34:11;;;;;;;3.37;3.03;;;13.80;92.10;;;;;;5093370;28;20899;-65
2022/10/01 01:36:43;;;;;;;4.23;2.73;;;13.80;92.00;;;;;;5093483;28;20503;-65
2022/10/01 01:39:13;;;;;;;3.20;2.40;;;13.80;91.60;;;;;;5093303;28;20464;-65
2022/10/01 01:41:47;;;;;;;2.90;2.60;;;13.80;92.00;;;;;;5093364;28;20461;-65
2022/10/01 01:44:19;;;;;;;2.60;1.83;;;13.80;92.10;;;;;;5093062;28;20538;-65
2022/10/01 01:46:48;;;;;;;3.43;2.63;;;13.80;92.20;;;;;;5093336;28;20478;-65
2022/10/01 01:49:16;;;;;;;2.60;1.97;;;13.80;92.10;;;;;;5094288;28;20457;-65
2022/10/01 01:51:49;;;;;;;2.40;1.90;;;13.80;92.30;;;;;;5097376;28;20454;-65
2022/10/01 01:54:16;;;;;;;5.70;2.70;;;13.80;92.20;;;;;;5097371;28;20441;-65
2022/10/01 01:56:43;;;;;;;2.73;2.30;;;13.70;92.70;;;;;;5097130;28;20479;-65
2022/10/01 01:59:10;;;;;;;4.80;2.43;;;13.70;92.70;;;;;;5097209;28;20836;-65
2022/10/01 02:01:40;;;;;;;3.93;2.13;;;13.70;92.80;;;;;;5097157;28;20464;-65
2022/10/01 02:04:13;;;;;;;3.43;2.07;;;13.70;93.00;;;;;;5096665;28;20844;-65
2022/10/01 02:06:53;;;;;;;2.20;1.93;;;13.70;93.10;;;;;;5097029;28;20471;-65
2022/10/01 02:09:28;;;;;;;2.47;2.27;;;13.70;93.50;;;;;;5097062;28;20429;-65
2022/10/01 02:12:07;;;;;;;4.20;2.60;;;13.70;93.60;;;;;;5097035;28;20435;-65
2022/10/01 02:14:43;;;;;;;2.60;2.00;;;13.70;93.80;;;;;;5096609;28;20910;-65
2022/10/01 02:17:16;;;;;;;2.43;2.23;;;13.70;93.90;;;;;;5096881;28;20440;-65
2022/10/01 02:19:51;;;;;;;4.07;2.10;;;13.70;94.40;;;;;;5096885;28;20436;-65
2022/10/01 02:22:21;;;;;;;2.60;2.40;;;13.70;94.40;;;;;;5097128;28;20487;-65
2022/10/01 02:24:56;;;;;;;2.87;1.90;;;13.70;94.50;;;;;;5096681;28;20438;-66
2022/10/01 02:27:27;;;;;;;2.67;2.40;;;13.80;94.50;;;;;;5096830;28;20897;-66
2022/10/01 02:29:55;;;;;;;3.50;2.57;;;13.80;94.40;;;;;;5096759;28;20440;-66
2022/10/01 02:32:24;;;;;;;2.53;2.27;;;13.70;94.50;;;;;;5096341;28;20968;-65
2022/10/01 02:34:54;;;;;;;4.00;2.40;;;13.70;94.70;;;;;;5096282;28;20957;-67
2022/10/01 02:37:24;;;;;;;3.40;2.00;;;13.70;95.10;;;;;;5096678;28;20509;-66
2022/10/01 02:39:54;;;;;;;3.03;2.60;;;13.60;95.00;;;;;;5096315;28;20472;-65
2022/10/01 02:42:23;;;;;;;2.40;2.17;;;13.60;95.20;;;;;;5096356;28;20465;-65
2022/10/01 02:44:53;;;;;;;2.20;2.00;;;13.60;95.40;;;;;;5096124;28;20965;-65
2022/10/01 02:47:25;;;;;;;3.03;2.00;;;13.60;95.40;;;;;;5096404;28;20486;-65
2022/10/01 02:49:53;;;;;;;4.07;1.90;;;13.60;95.20;;;;;;5096546;28;20434;-65
2022/10/01 02:52:27;;;;;;;4.00;2.00;;;13.60;95.50;;;;;;5096414;28;20462;-65
2022/10/01 02:54:58;;;;;;;4.20;1.73;;;13.70;95.40;;;;;;5096571;28;20453;-66
2022/10/01 02:57:28;;;;;;;2.30;1.57;;;13.70;95.40;;;;;;5096502;28;20776;-66
2022/10/01 02:59:58;;;;;;;2.10;1.60;;;13.70;95.80;;;;;;5096749;28;20520;-66
2022/10/01 03:02:26;;;;;;;3.37;1.67;;;13.70;95.50;;;;;;5097165;28;20940;-66
2022/10/01 03:04:55;;;;;;;1.97;1.60;;;13.70;95.70;;;;;;5097416;28;20452;-66
2022/10/01 03:07:23;;;;;;;2.80;1.70;;;13.70;95.90;;;;;;5097966;28;20450;-66
2022/10/01 03:09:50;;;;;;;4.37;1.40;;;13.70;96.00;;;;;;5099230;28;20794;-66
2022/10/01 03:12:18;;;;;;;1.50;1.23;;;13.70;96.10;;;;;;5097736;28;20443;-66
2022/10/01 03:14:45;;;;;;;2.87;1.30;;;13.70;96.10;;;;;;5099649;28;20447;-67
2022/10/01 03:17:12;;;;;;;1.53;1.20;;;13.70;96.20;;;;;;5097611;28;20802;-67
2022/10/01 03:19:40;;;;;;;2.43;1.07;;;13.80;96.40;;;;;;5097883;28;20444;-67
2022/10/01 03:22:08;;;;;;;2.17;1.17;;;13.80;96.50;;;;;;5097018;28;20942;-67
2022/10/01 03:24:36;;;;;;;1.37;1.00;;;13.70;96.50;;;;;;5109961;28;20484;-67
2022/10/01 03:27:02;;;;;;;2.60;1.30;;;13.70;96.80;;;;;;5097896;28;20542;-67
2022/10/01 03:29:29;;;;;;;2.73;1.10;;;13.70;96.90;;;;;;5096758;28;20461;-67
2022/10/01 03:31:56;;;;;;;2.50;0.80;;;13.60;96.90;;;;;;5095830;28;20447;-67
2022/10/01 03:34:23;;;;;;;3.67;0.83;;;13.70;97.20;;;;;;5095512;28;20437;-67
2022/10/01 03:36:50;;;;;;;2.00;0.70;;;13.60;97.10;;;;;;5095298;28;20476;-67
2022/10/01 03:39:18;;;;;;;0.90;0.90;;;13.60;97.10;;;;;;5095130;28;20466;-67
2022/10/01 03:41:45;;;;;;;2.83;1.00;;;13.50;97.10;;;;;;5094953;28;20464;-67
2022/10/01 03:44:12;;;;;;;2.03;0.70;;;13.60;97.40;;;;;;5095365;28;20478;-66
2022/10/01 03:46:39;;;;;;;0.70;0.60;;;13.60;97.30;;;;;;5095350;28;20470;-67
2022/10/01 03:49:06;;;;;;;1.90;1.00;;;13.60;97.50;;;;;;5095131;28;20452;-67
2022/10/01 03:51:34;;;;;;;1.10;0.70;;;13.60;97.50;;;;;;5095237;28;20455;-67
2022/10/01 03:54:01;;;;;;;1.57;0.50;;;13.60;97.50;;;;;;5095176;28;20450;-67
2022/10/01 03:56:29;;;;;;;2.57;1.00;;;13.60;97.60;;;;;;5094910;28;20474;-67
2022/10/01 03:58:56;;;;;;;0.80;0.80;;;13.60;97.50;;;;;;5095117;28;20451;-67
2022/10/01 04:01:24;;;;;;;1.20;1.10;;;13.60;97.40;;;;;;5094785;28;20455;-66
2022/10/01 04:03:51;;;;;;;0.90;0.70;;;13.70;97.60;;;;;;5094842;28;20492;-67
2022/10/01 04:06:18;;;;;;;1.67;0.40;;;13.60;97.60;;;;;;5094844;28;20829;-67
2022/10/01 04:08:45;;;;;;;1.37;0.50;;;13.60;97.80;;;;;;5094761;28;20457;-67
2022/10/01 04:11:12;;;;;;;1.53;0.80;;;13.60;97.80;;;;;;5094854;28;20452;-67
2022/10/01 04:13:40;;;;;;;1.47;0.40;;;13.70;97.60;;;;;;5094443;28;20451;-67
2022/10/01 04:16:07;;;;;;;0.90;0.40;;;13.60;97.70;;;;;;5095581;28;20478;-67
2022/10/01 04:18:34;;;;;;;0.50;0.50;;;13.70;97.60;;;;;;5094624;28;20462;-68
2022/10/01 04:21:01;;;;;;;0.63;0.40;;;13.70;97.40;;;;;;5095213;28;20461;-67
2022/10/01 04:23:27;;;;;;;0.40;0.30;;;13.70;97.60;;;;;;5094587;28;20492;-67
2022/10/01 04:25:54;;;;;;;0.47;0.47;;;13.60;97.60;;;;;;5094377;28;20477;-67
2022/10/01 04:28:21;;;;;;;0.60;0.47;;;13.60;97.70;;;;;;5094456;28;20454;-67
2022/10/01 04:31:23;;;;;;;1.07;0.50;;;13.60;97.60;;;;;;5094553;28;20448;-67
2022/10/01 04:33:36;;;;;;;2.03;0.50;;;13.60;98.30;;;;;;5093923;28;20946;-67
2022/10/01 04:36:03;;;;;;;0.40;0.30;;;13.60;98.20;;;;;;5094254;28;20479;-67
2022/10/01 04:38:29;;;;;;;0.50;0.30;;;13.60;98.10;;;;;;5093801;28;20821;-67
2022/10/01 04:40:56;;;;;;;0.50;0.40;;;13.70;98.00;;;;;;5094382;28;20435;-67
2022/10/01 04:43:23;;;;;;;0.70;0.30;;;13.60;97.80;;;;;;5094351;28;20479;-67
2022/10/01 04:45:51;;;;;;;1.03;0.30;;;13.70;98.10;;;;;;5094098;28;20472;-67
2022/10/01 04:48:18;;;;;;;1.23;0.30;;;13.70;98.20;;;;;;5093892;28;20823;-67
2022/10/01 04:50:44;;;;;;;1.63;0.43;;;13.70;97.80;;;;;;5094093;28;20455;-68
2022/10/01 04:53:11;;;;;;;1.10;0.40;;;13.80;97.90;;;;;;5094758;28;20461;-67
2022/10/01 04:55:38;;;;;;;2.77;0.40;;;13.80;97.90;;;;;;5093994;28;20571;-67
2022/10/01 04:58:05;;;;;;;1.47;0.37;;;13.80;98.00;;;;;;5094055;28;20829;-67
2022/10/01 05:00:32;;;;;;;0.70;0.40;;;13.80;98.00;;;;;;5093909;28;20456;-67
2022/10/01 05:03:00;;;;;;;1.37;0.37;;;13.80;98.20;;;;;;5093631;28;20964;-67
2022/10/01 05:05:28;;;;;;;0.50;0.50;;;13.90;98.20;;;;;;5093756;28;20477;-67
2022/10/01 05:07:54;;;;;;;2.10;0.77;;;13.80;98.00;;;;;;5093868;28;20456;-67
2022/10/01 05:10:23;;;;;;;1.30;0.60;;;13.90;98.10;;;;;;5093832;28;20818;-67
2022/10/01 05:12:51;;;;;;;6.90;1.70;;;13.90;98.00;;;;;;5093775;28;20486;-67
2022/10/01 05:15:18;;;;;;;1.57;1.30;;;13.80;97.90;;;;;;5093649;28;20491;-67
2022/10/01 05:17:46;;;;;;;0.50;0.40;;;13.90;98.30;;;;;;5093647;28;20542;-67
2022/10/01 05:20:17;;;;;;;0.60;0.60;;;13.90;98.00;;;;;;5093691;28;20455;-66
2022/10/01 05:22:45;;;;;;;0.97;0.30;;;13.80;98.00;;;;;;5093891;28;20440;-67
2022/10/01 05:25:13;;;;;;;0.40;0.40;;;13.80;98.40;;;;;;5096085;28;20487;-66
2022/10/01 05:27:39;;;;;;;0.50;0.30;;;13.80;98.30;;;;;;5098146;28;20435;-66
2022/10/01 05:30:09;;;;;;;0.70;0.40;;;13.80;98.30;;;;;;5098185;28;20460;-66
2022/10/01 05:32:36;;;;;;;0.97;0.30;;;13.90;98.50;;;;;;5097585;28;21054;-66
2022/10/01 05:35:03;;;;;;;1.37;0.40;;;13.90;98.60;;;;;;5098523;28;20466;-66
2022/10/01 05:37:31;;;;;;;0.40;0.30;;;13.90;98.30;;;;;;5098088;28;20461;-65
2022/10/01 05:39:57;;;;;;;0.40;0.30;;;13.90;98.30;;;;;;5097560;28;20956;-68
2022/10/01 05:42:24;;;;;;;1.63;0.37;;;14.00;98.20;;;;;;5098278;28;20449;-65
2022/10/01 05:44:51;;;;;;;0.40;0.30;;;13.90;98.30;;;;;;5098077;28;20471;-65
2022/10/01 05:47:19;;;;;;;0.73;0.30;;;14.00;98.40;;;;;;5098603;28;20445;-65
2022/10/01 05:49:46;;;;;;;1.87;0.30;;;14.00;98.40;;;;;;5098224;28;20475;-65
2022/10/01 05:52:14;;;;;;;0.53;0.30;;;14.00;98.40;;;;;;5098658;28;20461;-66
2022/10/01 05:54:42;;;;;;;0.57;0.20;;;14.00;98.40;;;;;;5098752;28;20432;-65
2022/10/01 05:57:09;;;;;;;1.27;0.30;;;14.00;98.50;;;;;;5099017;28;20448;-64
2022/10/01 05:59:36;;;;;;;1.47;0.50;;;14.00;98.60;;;;;;5101353;28;20447;-68
2022/10/01 06:02:03;;;;;;;0.80;0.30;;;14.00;98.70;;;;;;5100878;28;20437;-67
2022/10/01 06:04:30;;;;;;;0.50;0.30;;;14.00;98.50;;;;;;5099065;28;20839;-65
2022/10/01 06:06:57;;;;;;;0.97;0.30;;;14.10;98.40;;;;;;5098969;28;20482;-66
2022/10/01 06:09:24;;;;;;;0.40;0.30;;;14.10;98.50;;;;;;5100908;28;20459;-66
2022/10/01 06:11:52;;;;;;;1.27;0.40;;;14.10;98.60;;;;;;5097757;28;20453;-66
2022/10/01 06:14:19;;;;;;;0.67;0.30;;;14.10;98.50;;;;;;5097054;28;20442;-66
2022/10/01 06:16:46;;;;;;;1.13;0.40;;;14.10;98.70;;;;;;5097048;28;20482;-66
2022/10/01 06:19:13;;;;;;;6.63;1.07;;;14.10;98.60;;;;;;5096500;28;21028;-66
2022/10/01 06:21:39;;;;;;;1.80;0.50;;;14.20;98.70;;;;;;5096832;28;20456;-66
2022/10/01 06:24:06;;;;;;;0.40;0.30;;;14.10;98.60;;;;;;5096313;28;20487;-65
2022/10/01 06:26:33;;;;;;;0.93;0.40;;;14.20;98.70;;;;;;5096804;28;20474;-65
2022/10/01 06:29:02;;;;;;;0.70;0.43;;;14.20;98.80;;;;;;5096714;28;20510;-65
2022/10/01 06:31:29;;;;;;;0.60;0.57;;;14.20;98.90;;;;;;5096397;28;20565;-66
2022/10/01 06:33:56;;;;;;;0.40;0.20;;;14.20;99.00;;;;;;5096450;28;20449;-66
2022/10/01 06:36:23;;;;;;;0.50;0.30;;;14.20;98.90;;;;;;5095726;28;20825;-66
2022/10/01 06:38:50;;;;;;;6.20;0.47;;;14.20;98.90;;;;;;5096243;28;20474;-65
2022/10/01 06:41:17;;;;;;;0.77;0.40;;;14.30;99.30;;;;;;5096504;28;20532;-65
2022/10/01 06:43:44;;;;;;;0.40;0.30;;;14.30;99.50;;;;;;5096318;28;20494;-65
2022/10/01 06:46:12;;;;;;;1.83;0.50;;;14.30;99.40;;;;;;5096322;28;20549;-65
2022/10/01 06:48:39;;;;;;;1.50;0.40;;;14.30;99.40;;;;;;5096271;28;20446;-65
2022/10/01 06:51:07;;;;;;;4.10;0.50;;;14.40;99.50;;;;;;5096175;28;20466;-65
2022/10/01 06:53:33;;;;;;;1.13;0.40;;;14.40;99.40;;;;;;5096095;28;20480;-66
2022/10/01 06:56:04;;;;;;;0.50;0.30;;;14.40;99.50;;;;;;5095980;28;20464;-65
2022/10/01 06:58:31;;;;;;;0.43;0.40;;;14.40;99.20;;;;;;5096186;28;20426;-65
2022/10/01 07:00:58;;;;;;;0.97;0.40;;;14.50;99.10;;;;;;5096050;28;20439;-65
2022/10/01 07:03:27;;;;;;;5.10;0.50;;;14.50;99.20;;;;;;5095727;28;20934;-65
2022/10/01 07:05:54;;;;;;;1.60;0.40;;;14.50;99.10;;;;;;5095923;28;20470;-65
2022/10/01 07:08:21;;;;;;;0.40;0.37;;;14.50;99.00;;;;;;5095549;28;20824;-65
2022/10/01 07:10:48;;;;;;;0.50;0.40;;;14.50;99.30;;;;;;5095927;28;20446;-65
2022/10/01 07:13:19;;;;;;;0.40;0.40;;;14.40;99.20;;;;;;5095921;28;20459;-65
2022/10/01 07:15:46;;;;;;;0.73;0.50;;;14.50;99.30;;;;;;5095957;28;20479;-65
2022/10/01 07:18:13;;;;;;;1.27;0.50;;;14.40;99.20;;;;;;5096033;28;20432;-65
2022/10/01 07:20:41;;;;;;;1.43;0.50;;;14.50;99.20;;;;;;5095930;28;20442;-65
2022/10/01 07:23:10;;;;;;;0.77;0.50;;;14.50;99.30;;;;;;5095742;28;20440;-65
2022/10/01 07:25:38;;;;;;;4.30;0.50;;;14.50;99.20;;;;;;5095381;28;20989;-67
2022/10/01 07:28:07;;;;;;;1.17;0.50;;;14.60;99.20;;;;;;5095267;28;20968;-67
2022/10/01 07:30:34;;;;;;;1.57;0.60;;;14.60;99.40;;;;;;5095625;28;20445;-66
2022/10/01 07:33:00;;;;;;;2.17;0.53;;;14.60;99.10;;;;;;5095430;28;20446;-66
2022/10/01 07:35:28;;;;;;;1.10;1.00;;;14.60;99.30;;;;;;5095282;28;20466;-66
2022/10/01 07:37:56;;;;;;;1.40;0.50;;;14.70;99.30;;;;;;5095278;28;20447;-67
2022/10/01 07:40:23;;;;;;;1.37;0.50;;;14.80;99.60;;;;;;5094861;28;20474;-67
2022/10/01 07:42:54;;;;;;;0.83;0.60;;;14.80;99.50;;;;;;5094892;28;20457;-67
2022/10/01 07:45:21;;;;;;;0.77;0.50;;;14.80;99.40;;;;;;5094786;28;20993;-66
2022/10/01 07:47:52;;;;;;;4.33;0.60;;;14.90;99.30;;;;;;5094310;28;20458;-67
2022/10/01 07:50:19;;;;;;;0.70;0.60;;;15.00;99.10;;;;;;5094784;28;20924;-67
2022/10/01 07:52:50;;;;;;;0.77;0.50;;;15.00;99.00;;;;;;5094651;28;20816;-66
2022/10/01 07:55:18;;;;;;;2.00;0.70;;;15.00;99.10;;;;;;5094901;28;20467;-67
2022/10/01 07:57:50;;;;;;;1.10;0.53;;;15.00;99.40;;;;;;5094710;28;20812;-67
2022/10/01 08:00:18;;;;;;;0.70;0.50;;;15.00;99.30;;;;;;5094962;28;20435;-66
2022/10/01 08:02:47;;;;;;;1.63;0.87;;;15.00;99.30;;;;;;5094714;28;20455;-67
2022/10/01 08:05:20;;;;;;;0.87;0.50;;;15.00;99.40;;;;;;5094242;28;20522;-67
2022/10/01 08:07:48;;;;;;;4.67;1.10;;;15.00;99.70;;;;;;5094565;28;20447;-67
2022/10/01 08:10:16;;;;;;;1.00;0.57;;;15.00;99.90;;;;;;5094865;28;20455;-67
2022/10/01 08:12:45;;;;;;;0.60;0.57;;;15.10;99.70;;;;;;5094681;28;20471;-67
2022/10/01 08:15:13;;;;;;;1.77;0.63;;;15.10;99.40;;;;;;5094521;28;20462;-67
2022/10/01 08:17:40;;;;;;;2.00;0.60;;;15.20;99.60;;;;;;5094554;28;20488;-67
2022/10/01 08:20:09;;;;;;;1.60;0.50;;;15.20;99.90;;;;;;5094537;28;20969;-67
2022/10/01 08:22:36;;;;;;;2.43;0.50;;;15.30;99.90;;;;;;5094520;28;20462;-67
2022/10/01 08:25:03;;;;;;;1.03;0.67;;;15.30;99.90;;;;;;5094683;28;20489;-67
2022/10/01 08:27:29;;;;;;;0.50;0.50;;;15.30;99.90;;;;;;5095068;28;20447;-67
2022/10/01 08:29:57;;;;;;;2.70;0.80;;;15.40;99.90;;;;;;5095623;28;20825;-67
2022/10/01 08:32:26;;;;;;;1.17;0.60;;;15.40;99.90;;;;;;5096378;28;20450;-67
2022/10/01 08:34:56;;;;;;;2.80;0.67;;;15.60;99.90;;;;;;5096510;28;20455;-66
2022/10/01 08:37:25;;;;;;;3.90;1.47;;;15.60;99.70;;;;;;5097103;28;20805;-67
2022/10/01 08:39:53;;;;;;;0.50;0.50;;;15.70;99.80;;;;;;5096660;28;20471;-65
2022/10/01 08:42:35;;;;;;;2.13;0.93;;;15.60;99.50;;;;;;5096952;28;20818;-67
2022/10/01 08:45:09;;;;;;;0.67;0.57;;;15.60;99.90;;;;;;5097541;28;20482;-67
2022/10/01 08:47:40;;;;;;;0.97;0.80;;;15.70;99.90;;;;;;5096670;28;20538;-67
2022/10/01 08:50:16;;;;;;;2.20;0.63;;;15.80;99.90;;;;;;5097440;28;20782;-67
2022/10/01 08:52:50;;;;;;;0.90;0.73;;;15.90;99.90;;;;;;5097880;28;20435;-66
2022/10/01 08:55:21;;;;;;;1.20;0.93;;;16.20;99.90;;;;;;5097737;28;20467;-66
2022/10/01 08:57:54;;;;;;;4.30;1.00;;;16.40;99.70;;;;;;5097236;28;20431;-66
2022/10/01 09:00:22;;;;;;;2.30;0.90;;;16.70;99.20;;;;;;5098099;28;20954;-66
2022/10/01 09:02:50;;;;;;;2.40;1.17;;;16.80;97.80;;;;;;5099230;28;20451;-68
2022/10/01 09:05:23;;;;;;;1.47;1.37;;;16.70;98.00;;;;;;5099021;28;20487;-69
2022/10/01 09:08:04;;;;;;;1.77;1.10;;;16.50;98.80;;;;;;5102384;28;20435;-67
2022/10/01 09:10:43;;;;;;;2.37;1.30;;;16.30;99.40;;;;;;5097010;28;20459;-67
2022/10/01 09:13:32;;;;;;;2.40;2.10;;;16.10;99.70;;;;;;5095687;28;20795;-68
2022/10/01 09:16:08;;;;;;;6.27;3.40;;;15.90;99.90;;;;;;5094613;28;20460;-68
2022/10/01 09:18:44;;;;;;;5.43;1.73;;;15.80;99.90;;;;;;5094043;28;20456;-69
2022/10/01 09:21:19;;;;;;;4.53;1.97;;;15.70;99.90;;;;;;5094730;28;20458;-68
2022/10/01 09:23:56;;;;;;;4.50;1.80;;;15.60;99.90;;;;;;5094854;28;20459;-68
2022/10/01 09:26:23;;;;;;;3.60;1.50;;;15.60;99.90;;;;;;5093311;28;20478;-69
2022/10/01 09:28:52;;;;;;;2.20;2.00;;;15.50;99.90;;;;;;5093641;28;20442;-69
2022/10/01 09:31:24;;;;;;;3.80;2.10;;;15.50;99.90;;;;;;5093463;28;20463;-68
2022/10/01 09:33:55;;;;;;;3.43;1.77;;;15.50;99.90;;;;;;5093266;28;20435;-68
2022/10/01 09:36:32;;;;;;;1.97;1.67;;;15.50;99.90;;;;;;5093482;28;20478;-68
2022/10/01 09:39:08;;;;;;;1.97;1.40;;;15.60;99.90;;;;;;5093355;28;20473;-69
2022/10/01 09:41:35;;;;;;;2.07;1.53;;;15.70;99.90;;;;;;5093538;28;20521;-68
2022/10/01 09:44:02;;;;;;;3.03;1.57;;;15.80;99.90;;;;;;5093436;28;20456;-68
2022/10/01 09:46:30;;;;;;;2.83;1.70;;;15.90;99.90;;;;;;5093000;28;20984;-68
2022/10/01 09:49:03;;;;;;;2.40;1.50;;;16.10;99.90;;;;;;5093603;28;20810;-68
2022/10/01 09:51:35;;;;;;;3.00;1.50;;;16.20;99.90;;;;;;5093398;28;20454;-68
2022/10/01 09:54:07;;;;;;;5.00;2.40;;;16.40;99.90;;;;;;5093076;28;20802;-68
2022/10/01 09:56:37;;;;;;;2.70;1.53;;;16.60;99.90;;;;;;5093309;28;20471;-69
2022/10/01 09:59:08;;;;;;;3.50;1.60;;;16.90;99.90;;;;;;5090919;28;20456;-69
2022/10/01 10:01:44;;;;;;;1.80;1.20;;;17.20;99.90;;;;;;5092300;28;20463;-69
2022/10/01 10:04:10;;;;;;;2.40;0.90;;;17.40;99.60;;;;;;5093263;28;20438;-69
2022/10/01 10:06:38;;;;;;;3.70;1.30;;;17.50;99.00;;;;;;5095264;28;20486;-69
2022/10/01 10:09:14;;;;;;;2.47;1.40;;;17.40;97.70;;;;;;5107298;28;20459;-69
2022/10/01 10:11:42;;;;;;;1.50;1.07;;;17.40;96.70;;;;;;5116724;28;20431;-69
2022/10/01 10:14:18;;;;;;;1.43;1.00;;;17.40;97.30;;;;;;5100152;28;20528;-69
2022/10/01 10:16:48;;;;;;;2.50;1.33;;;17.60;98.30;;;;;;5100925;28;20473;-69
2022/10/01 10:19:21;;;;;;;2.47;1.53;;;17.90;97.20;;;;;;5103287;28;20464;-69
2022/10/01 10:21:52;;;;;;;5.27;1.80;;;18.30;96.70;;;;;;5100364;28;20455;-69
2022/10/01 10:24:26;;;;;;;3.83;1.30;;;18.70;96.10;;;;;;5103896;28;20463;-69
2022/10/01 10:26:55;;;;;;;4.70;1.70;;;19.30;94.30;;;;;;5096702;28;20459;-69
2022/10/01 10:29:26;;;;;;;5.80;1.90;;;19.90;93.10;;;;;;5096227;28;20439;-69
2022/10/01 10:31:55;;;;;;;2.60;1.77;;;20.30;91.10;;;;;;5096594;28;20444;-68
2022/10/01 10:34:30;;;;;;;2.97;1.77;;;20.70;90.10;;;;;;5096657;28;20448;-69
2022/10/01 10:36:58;;;;;;;4.00;1.70;;;21.30;87.50;;;;;;5096997;28;20463;-69
2022/10/01 10:39:29;;;;;;;5.27;2.20;;;21.60;83.20;;;;;;5096140;28;20543;-69
2022/10/01 10:41:57;;;;;;;5.63;1.77;;;21.70;82.30;;;;;;5096159;28;20787;-69
2022/10/01 10:44:29;;;;;;;5.90;2.03;;;22.00;82.00;;;;;;5096431;28;20420;-69
2022/10/01 10:47:01;;;;;;;5.50;2.10;;;22.30;80.20;;;;;;5096020;28;20990;-69
2022/10/01 10:49:30;;;;;;;4.90;2.40;;;22.60;75.70;;;;;;5096416;28;20460;-69
2022/10/01 10:52:00;;;;;;;10.23;2.60;;;22.30;72.80;;;;;;5096262;28;20452;-69
2022/10/01 10:54:30;;;;;;;6.17;1.97;;;21.90;76.60;;;;;;5096267;28;20474;-69
2022/10/01 10:57:01;;;;;;;5.33;1.83;;;21.90;78.50;;;;;;5096045;28;20468;-69
2022/10/01 10:59:30;;;;;;;6.17;2.50;;;21.70;79.00;;;;;;5095914;28;20852;-69
2022/10/01 11:01:59;;;;;;;5.87;2.23;;;21.30;77.80;;;;;;5095789;28;20452;-69
2022/10/01 11:04:37;;;;;;;5.70;2.40;;;20.80;81.70;;;;;;5096074;28;20440;-69
2022/10/01 11:07:05;;;;;;;4.93;2.67;;;20.60;80.90;;;;;;5096029;28;20499;-69
2022/10/01 11:09:45;;;;;;;8.57;2.40;;;20.20;82.00;;;;;;5095895;28;20456;-69
2022/10/01 11:12:23;;;;;;;9.40;3.00;;;19.80;83.60;;;;;;5096833;28;20982;-69
2022/10/01 11:15:11;;;;;;;8.77;2.83;;;19.60;86.50;;;;;;5095781;28;20436;-69
2022/10/01 11:18:08;;;;;;;6.83;2.63;;;19.50;87.60;;;;;;5095857;28;20429;-69
2022/10/01 11:20:40;;;;;;;6.40;2.70;;;19.30;88.10;;;;;;5091163;28;20509;-69
2022/10/01 11:23:37;;;;;;;4.87;2.40;;;19.40;89.90;;;;;;5094372;28;20458;-69
2022/10/01 11:26:17;;;;;;;6.87;2.00;;;19.70;83.50;;;;;;5095438;28;20994;-69
2022/10/01 11:28:56;;;;;;;4.23;1.93;;;19.80;81.40;;;;;;5095850;28;20432;-69
2022/10/01 11:31:34;;;;;;;7.10;2.10;;;19.80;82.60;;;;;;5095755;28;20436;-67
2022/10/01 11:34:20;;;;;;;7.20;2.20;;;19.80;82.90;;;;;;5095347;28;20914;-70
2022/10/01 11:36:55;;;;;;;5.03;1.90;;;19.80;83.10;;;;;;5095583;28;20464;-67
2022/10/01 11:39:25;;;;;;;3.63;1.87;;;19.90;81.50;;;;;;5095336;28;20500;-67
2022/10/01 11:41:59;;;;;;;5.33;2.17;;;19.90;83.50;;;;;;5095397;28;20443;-67
2022/10/01 11:44:30;;;;;;;4.37;2.10;;;20.70;82.70;;;;;;5096173;28;20424;-68
2022/10/01 11:47:01;;;;;;;7.63;2.00;;;21.60;77.30;;;;;;5095567;28;20496;-68
2022/10/01 11:49:44;;;;;;;6.43;2.03;;;21.90;70.90;;;;;;5097139;28;20914;-68
2022/10/01 11:52:18;;;;;;;3.50;1.80;;;22.00;70.00;;;;;;5096598;28;20910;-68
2022/10/01 11:54:56;;;;;;;6.30;1.90;;;21.80;70.90;;;;;;5098517;28;20435;-68
2022/10/01 12:00:10;;;;;;;5.13;1.87;;;20.60;73.40;;;;;;5095209;28;20938;-68
2022/10/01 12:02:48;;;;;;;7.77;2.40;;;19.90;75.60;;;;;;5094902;28;20472;-68
2022/10/01 12:05:20;;;;;;;10.90;1.90;;;19.40;79.30;;;;;;5094716;28;20487;-68
2022/10/01 12:07:53;;;;;;;2.93;1.90;;;19.10;79.80;;;;;;5095076;28;20447;-68
2022/10/01 12:10:32;;;;;;;3.73;2.40;;;18.80;80.40;;;;;;5094523;28;20910;-68
2022/10/01 12:13:06;;;;;;;5.73;2.13;;;18.80;82.00;;;;;;5094798;28;20801;-68
2022/10/01 12:15:39;;;;;;;5.73;2.10;;;18.70;82.40;;;;;;5094538;28;20930;-68
2022/10/01 12:18:13;;;;;;;1.87;1.43;;;19.00;83.70;;;;;;5094718;28;20433;-68
2022/10/01 12:20:47;;;;;;;3.57;1.63;;;20.10;80.40;;;;;;5094729;28;20439;-69
2022/10/01 12:23:18;;;;;;;3.70;1.70;;;21.40;74.60;;;;;;5094543;28;20432;-69
2022/10/01 12:25:55;;;;;;;4.60;2.10;;;22.70;69.20;;;;;;5094454;28;20504;-69
2022/10/01 12:28:29;;;;;;;4.50;1.73;;;23.80;60.50;;;;;;5095149;28;20455;-69
2022/10/01 12:31:03;;;;;;;4.77;1.60;;;24.50;57.00;;;;;;5094405;28;20440;-69
2022/10/01 12:33:55;;;;;;;4.13;1.90;;;25.20;55.60;;;;;;5094036;28;20439;-69
2022/10/01 12:36:30;;;;;;;2.30;1.13;;;25.70;53.00;;;;;;5094325;28;20464;-69
2022/10/01 12:39:15;;;;;;;3.33;1.80;;;25.70;52.00;;;;;;5093859;28;20977;-69
2022/10/01 12:41:51;;;;;;;4.17;1.47;;;25.80;51.60;;;;;;5094227;28;20423;-69
2022/10/01 12:44:37;;;;;;;5.13;1.73;;;26.00;50.70;;;;;;5094385;28;20435;-69
2022/10/01 12:47:26;;;;;;;3.97;1.70;;;26.20;50.40;;;;;;5094057;28;20550;-69
2022/10/01 12:50:03;;;;;;;4.93;1.83;;;26.60;49.80;;;;;;5093979;28;20938;-69
2022/10/01 12:52:42;;;;;;;5.60;2.00;;;26.90;49.30;;;;;;5094431;28;20482;-69
2022/10/01 12:55:22;;;;;;;5.67;1.77;;;27.00;47.60;;;;;;5093952;28;20478;-69
2022/10/01 12:57:58;;;;;;;5.10;2.60;;;27.00;48.30;;;;;;5095087;28;20428;-69
2022/10/01 13:00:26;;;;;;;4.40;1.90;;;27.00;47.70;;;;;;5093958;28;20432;-69
2022/10/01 13:03:27;;;;;;;4.17;1.93;;;27.10;47.80;;;;;;5093943;28;20446;-68
2022/10/01 13:06:07;;;;;;;5.07;2.23;;;27.30;46.00;;;;;;5093897;28;20492;-69